Imagination — C6FN2 — position and weather

sailwx.info

Track history (hours):
 
Tides and Currents Weather Stations Pressure Air Temp Water Temp Dewpoint Dewpoint Depression Visibility Wind Speed Wind Dir Waves Ship Positions

Imagination

Operator: Carnival Cruise Lines

Last reported at 2019-Jul-16 10:30 UTC. Time now 2019-Jul-16 10:57 UTC.
Position N 31°59' W 117°11'.

Type: Passenger vessel. MMSI: 309933000.

Date/timePositionNaut miles runAvg speedWind from/ knotsBaromVisibWave heightAir tempDewpointWater temp
2019-Jul-16 10:30N 31°59' W 117°11'4 8.8
2019-Jul-16 10:00N 32°01' W 117°16'2111.4
2019-Jul-16 10:00N 32°00' W 117°18'4 7.5 300 / 51015.0 0.0 18.014.818.0
2019-Jul-16 09:30N 32°03' W 117°20'5 9.0
2019-Jul-16 09:00N 32°06' W 117°24'510.4
2019-Jul-16 08:30N 32°10' W 117°29'612.6
2019-Jul-16 08:00N 32°13' W 117°35'612.3
2019-Jul-16 07:30N 32°18' W 117°39'612.0
2019-Jul-16 07:00N 32°24' W 117°42'612.1
2019-Jul-16 06:30N 32°29' W 117°45'510.1
2019-Jul-16 06:00N 32°34' W 117°47'6352.3
2019-Jul-16 06:00N 32°30' W 117°42'1020.5 250 / 61015.0 0.0 18.014.821.0
2019-Jul-16 05:30N 32°39' W 117°48'5 9.4
2019-Jul-16 05:00N 32°43' W 117°49'182.9
2019-Jul-16 05:00N 32°42' W 117°48'612.0 230 / 4 5.4 18.014.821.0
2019-Jul-16 04:31N 32°48' W 117°49'5 9.4
2019-Jul-16 04:00N 32°52' W 117°50'5 9.1
2019-Jul-16 03:30N 32°56' W 117°53'5 9.6
2019-Jul-16 03:00N 32°60' W 117°56'510.0
2019-Jul-16 02:30N 33°04' W 118°00'5 9.8
2019-Jul-16 02:00N 33°08' W 118°04'5 9.5
2019-Jul-16 01:30N 33°11' W 118°07'5 9.5
2019-Jul-16 01:01N 33°15' W 118°11'5 9.6
2019-Jul-16 00:30N 33°18' W 118°15'4 8.5
2019-Jul-16 00:00N 33°21' W 118°19'0 0.2
2019-Jul-15 23:26N 33°21' W 118°19'0 0.0
2019-Jul-15 22:59N 33°21' W 118°19'0 0.0
2019-Jul-15 22:29N 33°21' W 118°19'0 0.0
2019-Jul-15 21:56N 33°21' W 118°19'0 0.0
2019-Jul-15 21:29N 33°21' W 118°19'0 0.0
2019-Jul-15 20:58N 33°21' W 118°19'0 0.0
2019-Jul-15 20:25N 33°21' W 118°19'0 0.0
2019-Jul-15 19:58N 33°21' W 118°19'0 0.0
2019-Jul-15 19:28N 33°21' W 118°19'0 0.0
2019-Jul-15 18:58N 33°21' W 118°19'0 0.0
2019-Jul-15 18:30N 33°21' W 118°19'0 0.0
2019-Jul-15 18:00N 33°21' W 118°19'0 0.0
2019-Jul-15 17:30N 33°21' W 118°19'0 0.0
2019-Jul-15 17:00N 33°21' W 118°19'0 0.0
2019-Jul-15 16:29N 33°21' W 118°19'0 0.0
2019-Jul-15 15:56N 33°21' W 118°19'0 0.0
2019-Jul-15 15:30N 33°21' W 118°19'0 0.0
2019-Jul-15 15:00N 33°21' W 118°19'0 0.0
2019-Jul-15 14:30N 33°21' W 118°19'0 0.1
2019-Jul-15 14:00N 33°21' W 118°19'3 5.4
2019-Jul-15 13:30N 33°19' W 118°17'4 7.0
2019-Jul-15 13:00N 33°15' W 118°16'3 6.8
2019-Jul-15 12:30N 33°12' W 118°16'4 7.6
2019-Jul-15 12:00N 33°08' W 118°15'4 7.3
2019-Jul-15 11:30N 33°05' W 118°14'4 7.2
2019-Jul-15 11:00N 33°02' W 118°11'4 7.2
2019-Jul-15 10:30N 32°60' W 118°08'4 7.1
2019-Jul-15 10:00N 32°57' W 118°05'3 6.9
2019-Jul-15 09:30N 32°55' W 118°02'3 6.6
2019-Jul-15 09:00N 32°53' W 117°58'6419.7
2019-Jul-15 09:00N 32°48' W 117°54'612.5 300 / 51014.010.8 18.014.820.0
2019-Jul-15 08:30N 32°54' W 117°54'3 6.6
2019-Jul-15 08:00N 32°57' W 117°54'6398.2
2019-Jul-15 08:00N 32°54' W 117°48'919.3 270 / 51014.010.8 18.014.820.0
2019-Jul-15 07:30N 33°01' W 117°56'4 7.3
2019-Jul-15 07:00N 33°04' W 117°58'4244.0
2019-Jul-15 07:00N 33°06' W 117°54'5 9.8 260 / 61015.0 5.4 18.014.819.0
2019-Jul-15 06:30N 33°07' W 117°59'4 7.4
2019-Jul-15 06:00N 33°11' W 118°01'4 7.7
2019-Jul-15 05:30N 33°14' W 118°03'4 8.1
2019-Jul-15 05:00N 33°18' W 118°05'231502.4
2019-Jul-15 05:00N 33°00' W 117°48'2755.4 220 / 61014.010.8 18.014.820.0
2019-Jul-15 04:30N 33°22' W 118°07'4 8.0
2019-Jul-15 04:00N 33°25' W 118°09'4 8.1
2019-Jul-15 03:30N 33°29' W 118°10'4 8.7
2019-Jul-15 03:00N 33°33' W 118°12'5 9.2
2019-Jul-15 02:30N 33°38' W 118°13'4 9.0
2019-Jul-15 02:00N 33°42' W 118°11'3 5.9
2019-Jul-15 01:30N 33°45' W 118°11'0 0.0
2019-Jul-15 00:59N 33°45' W 118°11'0 0.0
2019-Jul-15 00:29N 33°45' W 118°11'0 0.0
2019-Jul-14 23:59N 33°45' W 118°11'0 0.0
2019-Jul-14 23:29N 33°45' W 118°11'0 0.0
2019-Jul-14 22:58N 33°45' W 118°11'0 0.0
2019-Jul-14 22:28N 33°45' W 118°11'0 0.0
2019-Jul-14 21:58N 33°45' W 118°11'0 0.0
2019-Jul-14 21:28N 33°45' W 118°11'0 0.0
2019-Jul-14 20:58N 33°45' W 118°11'0 0.0
2019-Jul-14 20:30N 33°45' W 118°11'0 0.0
2019-Jul-14 20:00N 33°45' W 118°11'0 0.0
2019-Jul-14 19:27N 33°45' W 118°11'0 0.0
2019-Jul-14 19:00N 33°45' W 118°11'0 0.0
2019-Jul-14 18:30N 33°45' W 118°11'0 0.0
2019-Jul-14 17:59N 33°45' W 118°11'0 0.0
2019-Jul-14 17:29N 33°45' W 118°11'0 0.0
2019-Jul-14 16:59N 33°45' W 118°11'0 0.0
2019-Jul-14 16:29N 33°45' W 118°11'0 0.0
2019-Jul-14 15:58N 33°45' W 118°11'0 0.0
2019-Jul-14 15:28N 33°45' W 118°11'0 0.0
2019-Jul-14 14:58N 33°45' W 118°11'0 0.0
2019-Jul-14 14:28N 33°45' W 118°11'0 0.0
2019-Jul-14 13:58N 33°45' W 118°11'0 0.0
2019-Jul-14 13:30N 33°45' W 118°11'0 0.0
2019-Jul-14 13:00N 33°45' W 118°11'0 0.0
2019-Jul-14 12:30N 33°45' W 118°11'0 0.0
2019-Jul-14 12:00N 33°45' W 118°11'0 0.6
2019-Jul-14 11:30N 33°45' W 118°11'4 8.5
2019-Jul-14 11:01N 33°41' W 118°11'611.4
2019-Jul-14 10:30N 33°35' W 118°09'714.0
2019-Jul-14 10:01N 33°28' W 118°06'612.9
2019-Jul-14 09:30N 33°22' W 118°04'816.1
2019-Jul-14 09:00N 33°15' W 118°00'815.9
2019-Jul-14 08:30N 33°07' W 117°57'815.9
2019-Jul-14 08:00N 32°60' W 117°54'815.7
2019-Jul-14 07:30N 32°53' W 117°51'816.0
2019-Jul-14 07:00N 32°45' W 117°48'816.3
2019-Jul-14 06:31N 32°37' W 117°46'816.1
2019-Jul-14 06:00N 32°29' W 117°42'141.6
2019-Jul-14 06:00N 32°30' W 117°42'816.8 220 / 21014.010.8 18.014.819.0
2019-Jul-14 05:30N 32°23' W 117°38'815.9
2019-Jul-14 05:00N 32°17' W 117°32'1115.5
2019-Jul-14 04:17N 32°09' W 117°22'415.2
2019-Jul-14 04:00N 32°06' W 117°18'715.0
2019-Jul-14 03:30N 32°02' W 117°11'915.4
2019-Jul-14 02:57N 31°58' W 117°02'815.6
2019-Jul-14 02:27N 31°55' W 116°53'7 0.5
2019-Jul-13 13:04N 31°52' W 116°46'1 6.4
2019-Jul-13 12:59N 31°52' W 116°47'3 6.5
2019-Jul-13 12:30N 31°54' W 116°50'3 6.7
2019-Jul-13 12:00N 31°55' W 116°54'3 6.7
2019-Jul-13 11:30N 31°56' W 116°57'3 6.7
2019-Jul-13 11:00N 31°57' W 117°01'3 6.7
2019-Jul-13 10:30N 31°57' W 117°05'4 7.0
2019-Jul-13 10:00N 31°58' W 117°09'3 7.0
2019-Jul-13 09:30N 31°60' W 117°13'3 5.8
2019-Jul-13 09:00N 31°58' W 117°15'3 6.6
2019-Jul-13 08:31N 31°55' W 117°15'3 6.6
2019-Jul-13 08:00N 31°51' W 117°15'4293.0
2019-Jul-13 08:00N 31°48' W 117°12'2 3.6 320 / 121015.010.8 17.013.718.0
2019-Jul-13 07:31N 31°48' W 117°14'3 6.9
2019-Jul-13 07:00N 31°45' W 117°13'3 6.9
2019-Jul-13 06:30N 31°41' W 117°13'3 6.8
2019-Jul-13 06:00N 31°39' W 117°17'4 6.9
2019-Jul-13 05:30N 31°38' W 117°20'3 6.9
2019-Jul-13 05:00N 31°36' W 117°24'6459.2
2019-Jul-13 05:00N 31°30' W 117°24'612.1 250 / 71015.0 5.4 16.012.719.0
2019-Jul-13 04:30N 31°35' W 117°28'4 7.1
2019-Jul-13 04:00N 31°33' W 117°32'4 7.3
2019-Jul-13 03:30N 31°32' W 117°35'4 7.1
2019-Jul-13 03:00N 31°30' W 117°39'5 7.1
2019-Jul-13 02:20N 31°28' W 117°44'2 7.0
2019-Jul-13 02:00N 31°27' W 117°47'4 7.1
2019-Jul-13 01:30N 31°26' W 117°51'3 7.0
2019-Jul-13 01:01N 31°24' W 117°54'4 7.1
2019-Jul-13 00:30N 31°23' W 117°58'4 7.1
2019-Jul-13 00:01N 31°21' W 118°02'4 7.1
2019-Jul-12 23:30N 31°20' W 118°06'3 6.9
2019-Jul-12 23:00N 31°23' W 118°08'4 7.3
2019-Jul-12 22:30N 31°26' W 118°09'4 7.7
2019-Jul-12 22:00N 31°30' W 118°10'7505.8
2019-Jul-12 22:00N 31°24' W 118°06'1122.2 310 / 81015.010.8 17.013.718.0
2019-Jul-12 21:30N 31°34' W 118°11'4 7.4
2019-Jul-12 21:00N 31°37' W 118°12'4 7.2
2019-Jul-12 20:30N 31°41' W 118°13'4 7.2
2019-Jul-12 20:00N 31°44' W 118°14'3 6.1
2019-Jul-12 19:30N 31°47' W 118°12'4 7.1
2019-Jul-12 19:00N 31°45' W 118°08'3 6.9
2019-Jul-12 18:30N 31°43' W 118°05'4 7.1
2019-Jul-12 18:00N 31°41' W 118°01'4 7.2
2019-Jul-12 17:30N 31°39' W 117°57'3 6.9
2019-Jul-12 17:00N 31°39' W 117°53'4 7.8
2019-Jul-12 16:30N 31°43' W 117°52'4 8.5
2019-Jul-12 16:00N 31°47' W 117°51'5327.4
2019-Jul-12 16:00N 31°42' W 117°48'918.3 010 / 81015.010.8 15.013.318.0
2019-Jul-12 15:30N 31°51' W 117°50'4 8.4
2019-Jul-12 15:00N 31°55' W 117°49'6348.8
2019-Jul-12 15:00N 31°54' W 117°42'714.0 010 / 81011.010.8 16.014.419.0
2019-Jul-12 14:31N 31°59' W 117°47'4 8.4
2019-Jul-12 14:01N 32°03' W 117°46'5283.8
2019-Jul-12 14:00N 32°00' W 117°42'816.1 360 / 81011.010.8 16.014.419.0
2019-Jul-12 13:30N 32°07' W 117°46'4 8.5
2019-Jul-12 13:00N 32°11' W 117°46'4 8.3
2019-Jul-12 12:30N 32°15' W 117°47'4 8.3
2019-Jul-12 12:00N 32°20' W 117°47'4 8.3
2019-Jul-12 11:30N 32°24' W 117°47'4 8.5
2019-Jul-12 11:01N 32°28' W 117°48'4 8.5
2019-Jul-12 10:30N 32°32' W 117°48'4 8.5
2019-Jul-12 10:01N 32°36' W 117°48'028.0
2019-Jul-12 10:00N 32°36' W 117°48'4 9.2 340 / 81015.010.8 18.014.819.0
2019-Jul-12 09:31N 32°40' W 117°50'4 8.2
2019-Jul-12 09:00N 32°44' W 117°51'4 8.2
2019-Jul-12 08:30N 32°48' W 117°53'4 8.2
2019-Jul-12 08:00N 32°52' W 117°55'4 8.1
2019-Jul-12 07:30N 32°56' W 117°56'4 8.2
2019-Jul-12 07:00N 32°59' W 117°58'4 8.0
2019-Jul-12 06:30N 33°03' W 117°59'4 7.9
2019-Jul-12 06:00N 33°07' W 118°01'178.9
2019-Jul-12 06:00N 33°06' W 118°00'611.5 160 / 91012.010.8 19.015.919.6
2019-Jul-12 05:30N 33°11' W 118°03'5 9.0
2019-Jul-12 05:00N 33°15' W 118°04'5311.1
2019-Jul-12 05:00N 33°12' W 118°00'918.9 340 / 91012.010.8 17.013.718.0
2019-Jul-12 04:30N 33°19' W 118°06'4 8.7
2019-Jul-12 04:00N 33°24' W 118°08'6356.4
2019-Jul-12 04:00N 33°18' W 118°06'1021.6 330 / 91012.010.8 17.013.718.0
2019-Jul-12 03:30N 33°28' W 118°10'5 9.2
2019-Jul-12 03:00N 33°32' W 118°12'5 9.3
2019-Jul-12 02:30N 33°37' W 118°13'8 8.4
2019-Jul-12 01:30N 33°45' W 118°11'0 0.0
2019-Jul-12 00:58N 33°45' W 118°11'0 0.0
2019-Jul-12 00:28N 33°45' W 118°11'0 0.0
2019-Jul-11 23:58N 33°45' W 118°11'0 0.0
2019-Jul-11 23:30N 33°45' W 118°11'0 0.0
2019-Jul-11 23:00N 33°45' W 118°11'0 0.0
2019-Jul-11 22:30N 33°45' W 118°11'0 0.0
2019-Jul-11 22:00N 33°45' W 118°11'0 0.0
2019-Jul-11 21:30N 33°45' W 118°11'0 0.0
2019-Jul-11 21:00N 33°45' W 118°11'0 0.0
2019-Jul-11 20:29N 33°45' W 118°11'0 0.0
2019-Jul-11 19:59N 33°45' W 118°11'0 0.0
2019-Jul-11 19:30N 33°45' W 118°11'0 0.0
2019-Jul-11 19:01N 33°45' W 118°11'0 0.0
2019-Jul-11 18:30N 33°45' W 118°11'0 0.0
2019-Jul-11 18:01N 33°45' W 118°11'0 0.0
2019-Jul-11 17:30N 33°45' W 118°11'0 0.0
2019-Jul-11 17:01N 33°45' W 118°11'0 0.0
2019-Jul-11 16:30N 33°45' W 118°11'0 0.0
2019-Jul-11 16:00N 33°45' W 118°11'0 0.0
2019-Jul-11 15:31N 33°45' W 118°11'0 0.0
2019-Jul-11 15:00N 33°45' W 118°11'0 0.0
2019-Jul-11 14:30N 33°45' W 118°11'0 0.0
2019-Jul-11 14:00N 33°45' W 118°11'0 0.0
2019-Jul-11 13:30N 33°45' W 118°11'0 0.0
2019-Jul-11 13:00N 33°45' W 118°11'0 0.4
2019-Jul-11 12:30N 33°45' W 118°11'3 5.6
2019-Jul-11 12:00N 33°42' W 118°11'4 8.6
2019-Jul-11 11:30N 33°38' W 118°10'4 7.6
2019-Jul-11 11:00N 33°34' W 118°09'3 6.7
2019-Jul-11 10:31N 33°31' W 118°08'3 6.3
2019-Jul-11 10:01N 33°28' W 118°06'3 6.8
2019-Jul-11 09:30N 33°25' W 118°05'4 7.1
2019-Jul-11 09:01N 33°21' W 118°03'4 7.3
2019-Jul-11 08:30N 33°18' W 118°02'4 7.2
2019-Jul-11 08:00N 33°15' W 118°00'4 7.3
2019-Jul-11 07:31N 33°11' W 117°58'4 7.3
2019-Jul-11 07:00N 33°08' W 117°57'4 7.1
2019-Jul-11 06:31N 33°05' W 117°55'4 7.2
2019-Jul-11 06:01N 33°01' W 117°53'5277.9
2019-Jul-11 06:00N 33°00' W 117°48'4 7.6 260 / 71016.010.8 17.013.719.9
2019-Jul-11 05:30N 32°58' W 117°52'4 7.2
2019-Jul-11 05:01N 32°55' W 117°50'2127.6
2019-Jul-11 05:00N 32°54' W 117°48'3 6.6 280 / 71016.010.8 17.013.718.0
2019-Jul-11 04:30N 32°51' W 117°50'3 6.9
2019-Jul-11 04:00N 32°48' W 117°49'169.8
2019-Jul-11 04:00N 32°48' W 117°48'4 8.2 270 / 41016.010.8 17.013.718.0
2019-Jul-11 03:30N 32°44' W 117°49'4 7.3
2019-Jul-11 03:00N 32°40' W 117°48'3 6.9
2019-Jul-11 02:31N 32°37' W 117°48'4 7.2
2019-Jul-11 02:00N 32°34' W 117°46'4 7.7
2019-Jul-11 01:30N 32°31' W 117°43'5 9.1
2019-Jul-11 01:00N 32°27' W 117°40'5 9.8
2019-Jul-11 00:30N 32°23' W 117°37'4 7.8
2019-Jul-11 00:00N 32°19' W 117°35'4 7.7
2019-Jul-10 23:30N 32°16' W 117°33'4 7.6
2019-Jul-10 23:01N 32°13' W 117°30'4 7.5
2019-Jul-10 22:31N 32°10' W 117°28'4 7.2
2019-Jul-10 22:00N 32°06' W 117°26'4 7.2
2019-Jul-10 21:30N 32°03' W 117°24'4 7.3
2019-Jul-10 21:00N 32°00' W 117°21'4 7.3
2019-Jul-10 20:30N 31°56' W 117°21'4 7.8
2019-Jul-10 20:00N 31°53' W 117°22'4261.0
2019-Jul-10 20:00N 31°54' W 117°18'714.7 290 / 151015.010.8 18.014.819.0
2019-Jul-10 19:31N 31°50' W 117°25'4 8.0
2019-Jul-10 19:00N 31°49' W 117°29'4 7.9
2019-Jul-10 18:31N 31°47' W 117°34'4 7.8
2019-Jul-10 18:00N 31°46' W 117°38'5279.8
2019-Jul-10 18:00N 31°42' W 117°36'612.7 300 / 91018.010.8 17.013.718.0
2019-Jul-10 17:30N 31°45' W 117°42'4 7.9
2019-Jul-10 17:00N 31°43' W 117°47'4267.0
2019-Jul-10 17:00N 31°42' W 117°42'815.8 250 / 81018.010.8 15.013.318.0
2019-Jul-10 16:31N 31°42' W 117°51'4 7.4
2019-Jul-10 16:01N 31°41' W 117°55'5286.0
2019-Jul-10 16:00N 31°36' W 117°54'611.7 300 / 91018.010.8 15.013.318.0
2019-Jul-10 15:30N 31°40' W 117°59'4 7.2
2019-Jul-10 15:00N 31°38' W 118°03'4 7.1
2019-Jul-10 14:30N 31°35' W 118°05'4 7.2
2019-Jul-10 14:00N 31°32' W 118°06'3 5.8
2019-Jul-10 13:30N 31°29' W 118°05'4 7.0
2019-Jul-10 13:00N 31°27' W 118°01'4 6.9
2019-Jul-10 12:29N 31°26' W 117°57'3 7.2
2019-Jul-10 12:01N 31°24' W 117°54'4 7.1
2019-Jul-10 11:30N 31°23' W 117°50'4 7.1
2019-Jul-10 11:01N 31°26' W 117°48'4 7.7
2019-Jul-10 10:31N 31°30' W 117°48'4 7.7
2019-Jul-10 10:00N 31°34' W 117°49'4 7.5
2019-Jul-10 09:30N 31°37' W 117°49'3 6.1
2019-Jul-10 09:00N 31°40' W 117°47'6347.0
2019-Jul-10 09:00N 31°36' W 117°42'510.3 320 / 111015.010.8 17.013.719.0
2019-Jul-10 08:30N 31°41' W 117°43'4 7.5
2019-Jul-10 08:00N 31°42' W 117°38'2124.6
2019-Jul-10 08:00N 31°42' W 117°36'2 4.3 340 / 81016.010.8 17.013.719.0
2019-Jul-10 07:25N 31°43' W 117°33'3 7.8
2019-Jul-10 07:00N 31°44' W 117°30'4 8.3
2019-Jul-10 06:31N 31°45' W 117°25'4 8.1
2019-Jul-10 06:01N 31°46' W 117°20'5299.0
2019-Jul-10 06:00N 31°42' W 117°24'917.6 350 / 171016.010.8 17.013.718.0
2019-Jul-10 05:31N 31°47' W 117°16'4 8.4
2019-Jul-10 05:00N 31°48' W 117°11'41543.6
2019-Jul-10 05:00N 31°48' W 117°06'1 2.9 340 / 161016.010.8 17.013.718.0
2019-Jul-10 04:31N 31°49' W 117°06'4 8.8
2019-Jul-10 04:00N 31°50' W 117°01'3193.6
2019-Jul-10 04:00N 31°48' W 117°00'10 0.6 350 / 191016.010.8 17.013.719.0
2019-Jul-09 12:46N 31°54' W 116°51'3 9.5
2019-Jul-09 12:27N 31°55' W 116°54'6 9.4
2019-Jul-09 11:47N 31°57' W 117°01'3 9.6
2019-Jul-09 11:29N 31°57' W 117°04'5 9.7
2019-Jul-09 10:59N 31°59' W 117°10'5 9.6
2019-Jul-09 10:27N 32°01' W 117°16'6 9.6
2019-Jul-09 09:48N 32°05' W 117°21'3 9.5
2019-Jul-09 09:30N 32°07' W 117°24'5 9.5
2019-Jul-09 09:01N 32°09' W 117°28'5290.2
2019-Jul-09 09:00N 32°06' W 117°24'919.6 310 / 91015.010.8 18.013.119.0
2019-Jul-09 08:31N 32°12' W 117°32'5 9.3
2019-Jul-09 08:01N 32°16' W 117°36'6370.5
2019-Jul-09 08:00N 32°12' W 117°30'1122.6 310 / 91015.010.8 18.013.119.0
2019-Jul-09 07:31N 32°19' W 117°40'5 9.3
2019-Jul-09 07:00N 32°23' W 117°42'5 9.6
2019-Jul-09 06:31N 32°28' W 117°45'611.0
2019-Jul-09 06:01N 32°33' W 117°47'5303.6
2019-Jul-09 06:00N 32°30' W 117°42'1021.4 040 / 51015.010.8 18.013.120.0
2019-Jul-09 05:30N 32°38' W 117°49'5 9.3
2019-Jul-09 05:00N 32°43' W 117°49'2108.5
2019-Jul-09 05:00N 32°42' W 117°48'612.2 020 / 51015.010.8 18.013.120.0
2019-Jul-09 04:31N 32°48' W 117°49'5 9.6
2019-Jul-09 04:01N 32°53' W 117°50'11639.3
2019-Jul-09 04:00N 32°42' W 117°48'1531.0 340 / 21015.010.8 18.013.120.0
2019-Jul-09 03:30N 32°57' W 117°53'5 9.5
2019-Jul-09 03:00N 33°00' W 117°56'5 9.1
2019-Jul-09 02:30N 33°04' W 117°60'5 9.1
2019-Jul-09 02:01N 33°07' W 118°03'5 9.4
2019-Jul-09 01:30N 33°11' W 118°07'5 9.7
2019-Jul-09 01:00N 33°14' W 118°11'5 9.5
2019-Jul-09 00:30N 33°18' W 118°14'4 8.8
2019-Jul-09 00:00N 33°21' W 118°18'1 1.0
2019-Jul-08 23:29N 33°21' W 118°19'0 0.0
2019-Jul-08 22:50N 33°21' W 118°19'0 0.0
2019-Jul-08 22:30N 33°21' W 118°19'0 0.0
2019-Jul-08 21:59N 33°21' W 118°19'0 0.0
2019-Jul-08 21:28N 33°21' W 118°19'0 0.0
2019-Jul-08 20:58N 33°21' W 118°19'0 0.0
2019-Jul-08 20:28N 33°21' W 118°19'0 0.0
2019-Jul-08 19:58N 33°21' W 118°19'0 0.0
2019-Jul-08 19:31N 33°21' W 118°19'0 0.0
2019-Jul-08 19:00N 33°21' W 118°19'0 0.0
2019-Jul-08 18:30N 33°21' W 118°19'0 0.0
2019-Jul-08 18:00N 33°21' W 118°19'0 0.0
2019-Jul-08 17:30N 33°21' W 118°19'0 0.0
2019-Jul-08 17:01N 33°21' W 118°19'0 0.1
2019-Jul-08 16:30N 33°21' W 118°19'0 0.1
2019-Jul-08 16:00N 33°21' W 118°19'0 0.0
2019-Jul-08 15:30N 33°21' W 118°19'0 0.0
2019-Jul-08 15:00N 33°21' W 118°19'0 0.0
2019-Jul-08 14:30N 33°21' W 118°19'0 0.1
2019-Jul-08 14:00N 33°21' W 118°19'3 6.1
2019-Jul-08 13:30N 33°18' W 118°17'4 7.1
2019-Jul-08 13:00N 33°15' W 118°16'3 6.8
2019-Jul-08 12:30N 33°11' W 118°16'4 7.4
2019-Jul-08 12:00N 33°08' W 118°15'4 7.0
2019-Jul-08 11:30N 33°04' W 118°14'4 7.0
2019-Jul-08 11:00N 33°02' W 118°11'9581.2
2019-Jul-08 11:00N 32°54' W 118°06'612.2 130 / 71015.010.8 18.013.120.0
2019-Jul-08 10:30N 32°60' W 118°08'4 7.2
2019-Jul-08 10:00N 32°57' W 118°04'4 7.2
2019-Jul-08 09:30N 32°55' W 118°01'3 6.9
2019-Jul-08 09:00N 32°53' W 117°57'4 7.0
2019-Jul-08 08:30N 32°55' W 117°54'4 7.1
2019-Jul-08 08:00N 32°58' W 117°55'4333.2
2019-Jul-08 08:00N 32°54' W 117°54'815.8 340 / 21014.010.8 18.013.120.0
2019-Jul-08 07:30N 33°01' W 117°57'4 7.1
2019-Jul-08 07:00N 33°04' W 117°59'4 7.3
2019-Jul-08 06:30N 33°08' W 118°00'4 7.2
2019-Jul-08 06:00N 33°11' W 118°02'5350.5
2019-Jul-08 06:00N 33°06' W 118°00'919.0 120 / 81014.010.8 18.013.118.0
2019-Jul-08 05:30N 33°15' W 118°04'4 7.5
2019-Jul-08 05:00N 33°18' W 118°06'8466.5
2019-Jul-08 05:00N 33°12' W 118°00'1123.7 120 / 31014.010.8 18.013.118.0
2019-Jul-08 04:30N 33°21' W 118°08'4 7.8
2019-Jul-08 04:00N 33°25' W 118°09'3196.5
2019-Jul-08 04:00N 33°24' W 118°06'613.3 140 / 101014.010.8 18.013.118.0
2019-Jul-08 03:30N 33°29' W 118°11'5 9.0
2019-Jul-08 03:00N 33°33' W 118°13'5 9.5
2019-Jul-08 02:30N 33°38' W 118°13'4 8.7
2019-Jul-08 02:00N 33°42' W 118°11'3 5.5
2019-Jul-08 01:29N 33°45' W 118°11'0 0.0
2019-Jul-08 00:59N 33°45' W 118°11'0 0.0
2019-Jul-08 00:28N 33°45' W 118°11'0 0.0
2019-Jul-07 23:58N 33°45' W 118°11'0 0.0
2019-Jul-07 23:28N 33°45' W 118°11'0 0.0
2019-Jul-07 22:58N 33°45' W 118°11'0 0.0
2019-Jul-07 22:28N 33°45' W 118°11'0 0.0
2019-Jul-07 22:00N 33°45' W 118°11'0 0.0
2019-Jul-07 21:30N 33°45' W 118°11'0 0.0
2019-Jul-07 21:00N 33°45' W 118°11'0 0.0
2019-Jul-07 20:30N 33°45' W 118°11'0 0.0
2019-Jul-07 19:59N 33°45' W 118°11'0 0.0
2019-Jul-07 19:29N 33°45' W 118°11'0 0.0
2019-Jul-07 18:59N 33°45' W 118°11'0 0.0
2019-Jul-07 18:26N 33°45' W 118°11'0 0.0
2019-Jul-07 17:59N 33°45' W 118°11'0 0.0
2019-Jul-07 17:28N 33°45' W 118°11'0 0.0
2019-Jul-07 16:58N 33°45' W 118°11'0 0.0
2019-Jul-07 16:28N 33°45' W 118°11'0 0.0
2019-Jul-07 15:58N 33°45' W 118°11'0 0.0
2019-Jul-07 15:31N 33°45' W 118°11'0 0.0
2019-Jul-07 15:00N 33°45' W 118°11'0 0.0
2019-Jul-07 14:30N 33°45' W 118°11'0 0.0
2019-Jul-07 14:00N 33°45' W 118°11'0 0.0
2019-Jul-07 13:30N 33°45' W 118°11'0 0.0
2019-Jul-07 12:59N 33°45' W 118°11'0 0.3
2019-Jul-07 12:30N 33°45' W 118°11'3 5.6
2019-Jul-07 12:00N 33°42' W 118°11'510.6
2019-Jul-07 11:30N 33°37' W 118°10'510.6
2019-Jul-07 11:00N 33°32' W 118°08'4 8.1
2019-Jul-07 10:30N 33°28' W 118°06'510.5
2019-Jul-07 10:00N 33°23' W 118°04'510.9
2019-Jul-07 09:31N 33°18' W 118°02'611.2
2019-Jul-07 09:00N 33°13' W 117°59'611.8
2019-Jul-07 08:30N 33°07' W 117°57'611.8
2019-Jul-07 08:00N 33°02' W 117°54'4249.9
2019-Jul-07 08:00N 33°06' W 117°54'1122.1 160 / 121015.010.8 18.014.819.0
2019-Jul-07 07:30N 32°56' W 117°51'816.5
2019-Jul-07 07:00N 32°48' W 117°49'816.8
2019-Jul-07 06:30N 32°39' W 117°47'816.3
2019-Jul-07 06:00N 32°31' W 117°45'3156.8
2019-Jul-07 06:00N 32°30' W 117°42'611.8 290 / 11016.010.8 17.011.918.0
2019-Jul-07 05:30N 32°25' W 117°39'816.4
2019-Jul-07 05:00N 32°18' W 117°33'3205.6
2019-Jul-07 05:00N 32°18' W 117°30'612.9 270 / 71016.010.8 17.011.918.0
2019-Jul-07 04:30N 32°12' W 117°27'1018.9
2019-Jul-07 04:00N 32°06' W 117°18'30 2.0 300 / 41016.010.8 17.011.918.0
2019-Jul-06 13:04N 31°52' W 116°47'1 7.1
2019-Jul-06 13:00N 31°52' W 116°47'5 7.1
2019-Jul-06 12:14N 31°55' W 116°53'2 7.1
2019-Jul-06 12:00N 31°55' W 116°55'4 7.1
2019-Jul-06 11:28N 31°55' W 116°59'2 3.4
2019-Jul-06 11:00N 31°54' W 117°00'4114.2 250 / 31015.010.8 17.013.719.0
2019-Jul-06 10:58N 31°56' W 117°03'  
Track history (hours):
 
Tides and Currents Weather Stations Pressure Air Temp Water Temp Dewpoint Dewpoint Depression Visibility Wind Speed Wind Dir Waves Ship Positions

Imagination

Operator: Carnival Cruise Lines

Last reported at 2019-Jul-16 10:30 UTC. Time now 2019-Jul-16 10:57 UTC.
Position N 31°59' W 117°11'.

Type: Passenger vessel. MMSI: 309933000.

Date/timePositionNaut miles runAvg speedWind from/ knotsBaromVisibWave heightAir tempDewpointWater temp
2019-Jul-16 10:30N 31°59' W 117°11'4 8.8
2019-Jul-16 10:00N 32°01' W 117°16'2111.4
2019-Jul-16 10:00N 32°00' W 117°18'4 7.5 300 / 51015.0 0.0 18.014.818.0
2019-Jul-16 09:30N 32°03' W 117°20'5 9.0
2019-Jul-16 09:00N 32°06' W 117°24'510.4
2019-Jul-16 08:30N 32°10' W 117°29'612.6
2019-Jul-16 08:00N 32°13' W 117°35'612.3
2019-Jul-16 07:30N 32°18' W 117°39'612.0
2019-Jul-16 07:00N 32°24' W 117°42'612.1
2019-Jul-16 06:30N 32°29' W 117°45'510.1
2019-Jul-16 06:00N 32°34' W 117°47'6352.3
2019-Jul-16 06:00N 32°30' W 117°42'1020.5 250 / 61015.0 0.0 18.014.821.0
2019-Jul-16 05:30N 32°39' W 117°48'5 9.4
2019-Jul-16 05:00N 32°43' W 117°49'182.9
2019-Jul-16 05:00N 32°42' W 117°48'612.0 230 / 4 5.4 18.014.821.0
2019-Jul-16 04:31N 32°48' W 117°49'5 9.4
2019-Jul-16 04:00N 32°52' W 117°50'5 9.1
2019-Jul-16 03:30N 32°56' W 117°53'5 9.6
2019-Jul-16 03:00N 32°60' W 117°56'510.0
2019-Jul-16 02:30N 33°04' W 118°00'5 9.8
2019-Jul-16 02:00N 33°08' W 118°04'5 9.5
2019-Jul-16 01:30N 33°11' W 118°07'5 9.5
2019-Jul-16 01:01N 33°15' W 118°11'5 9.6
2019-Jul-16 00:30N 33°18' W 118°15'4 8.5
2019-Jul-16 00:00N 33°21' W 118°19'0 0.2
2019-Jul-15 23:26N 33°21' W 118°19'0 0.0
2019-Jul-15 22:59N 33°21' W 118°19'0 0.0
2019-Jul-15 22:29N 33°21' W 118°19'0 0.0
2019-Jul-15 21:56N 33°21' W 118°19'0 0.0
2019-Jul-15 21:29N 33°21' W 118°19'0 0.0
2019-Jul-15 20:58N 33°21' W 118°19'0 0.0
2019-Jul-15 20:25N 33°21' W 118°19'0 0.0
2019-Jul-15 19:58N 33°21' W 118°19'0 0.0
2019-Jul-15 19:28N 33°21' W 118°19'0 0.0
2019-Jul-15 18:58N 33°21' W 118°19'0 0.0
2019-Jul-15 18:30N 33°21' W 118°19'0 0.0
2019-Jul-15 18:00N 33°21' W 118°19'0 0.0
2019-Jul-15 17:30N 33°21' W 118°19'0 0.0
2019-Jul-15 17:00N 33°21' W 118°19'0 0.0
2019-Jul-15 16:29N 33°21' W 118°19'0 0.0
2019-Jul-15 15:56N 33°21' W 118°19'0 0.0
2019-Jul-15 15:30N 33°21' W 118°19'0 0.0
2019-Jul-15 15:00N 33°21' W 118°19'0 0.0
2019-Jul-15 14:30N 33°21' W 118°19'0 0.1
2019-Jul-15 14:00N 33°21' W 118°19'3 5.4
2019-Jul-15 13:30N 33°19' W 118°17'4 7.0
2019-Jul-15 13:00N 33°15' W 118°16'3 6.8
2019-Jul-15 12:30N 33°12' W 118°16'4 7.6
2019-Jul-15 12:00N 33°08' W 118°15'4 7.3
2019-Jul-15 11:30N 33°05' W 118°14'4 7.2
2019-Jul-15 11:00N 33°02' W 118°11'4 7.2
2019-Jul-15 10:30N 32°60' W 118°08'4 7.1
2019-Jul-15 10:00N 32°57' W 118°05'3 6.9
2019-Jul-15 09:30N 32°55' W 118°02'3 6.6
2019-Jul-15 09:00N 32°53' W 117°58'6419.7
2019-Jul-15 09:00N 32°48' W 117°54'612.5 300 / 51014.010.8 18.014.820.0
2019-Jul-15 08:30N 32°54' W 117°54'3 6.6
2019-Jul-15 08:00N 32°57' W 117°54'6398.2
2019-Jul-15 08:00N 32°54' W 117°48'919.3 270 / 51014.010.8 18.014.820.0
2019-Jul-15 07:30N 33°01' W 117°56'4 7.3
2019-Jul-15 07:00N 33°04' W 117°58'4244.0
2019-Jul-15 07:00N 33°06' W 117°54'5 9.8 260 / 61015.0 5.4 18.014.819.0
2019-Jul-15 06:30N 33°07' W 117°59'4 7.4
2019-Jul-15 06:00N 33°11' W 118°01'4 7.7
2019-Jul-15 05:30N 33°14' W 118°03'4 8.1
2019-Jul-15 05:00N 33°18' W 118°05'231502.4
2019-Jul-15 05:00N 33°00' W 117°48'2755.4 220 / 61014.010.8 18.014.820.0
2019-Jul-15 04:30N 33°22' W 118°07'4 8.0
2019-Jul-15 04:00N 33°25' W 118°09'4 8.1
2019-Jul-15 03:30N 33°29' W 118°10'4 8.7
2019-Jul-15 03:00N 33°33' W 118°12'5 9.2
2019-Jul-15 02:30N 33°38' W 118°13'4 9.0
2019-Jul-15 02:00N 33°42' W 118°11'3 5.9
2019-Jul-15 01:30N 33°45' W 118°11'0 0.0
2019-Jul-15 00:59N 33°45' W 118°11'0 0.0
2019-Jul-15 00:29N 33°45' W 118°11'0 0.0
2019-Jul-14 23:59N 33°45' W 118°11'0 0.0
2019-Jul-14 23:29N 33°45' W 118°11'0 0.0
2019-Jul-14 22:58N 33°45' W 118°11'0 0.0
2019-Jul-14 22:28N 33°45' W 118°11'0 0.0
2019-Jul-14 21:58N 33°45' W 118°11'0 0.0
2019-Jul-14 21:28N 33°45' W 118°11'0 0.0
2019-Jul-14 20:58N 33°45' W 118°11'0 0.0
2019-Jul-14 20:30N 33°45' W 118°11'0 0.0
2019-Jul-14 20:00N 33°45' W 118°11'0 0.0
2019-Jul-14 19:27N 33°45' W 118°11'0 0.0
2019-Jul-14 19:00N 33°45' W 118°11'0 0.0
2019-Jul-14 18:30N 33°45' W 118°11'0 0.0
2019-Jul-14 17:59N 33°45' W 118°11'0 0.0
2019-Jul-14 17:29N 33°45' W 118°11'0 0.0
2019-Jul-14 16:59N 33°45' W 118°11'0 0.0
2019-Jul-14 16:29N 33°45' W 118°11'0 0.0
2019-Jul-14 15:58N 33°45' W 118°11'0 0.0
2019-Jul-14 15:28N 33°45' W 118°11'0 0.0
2019-Jul-14 14:58N 33°45' W 118°11'0 0.0
2019-Jul-14 14:28N 33°45' W 118°11'0 0.0
2019-Jul-14 13:58N 33°45' W 118°11'0 0.0
2019-Jul-14 13:30N 33°45' W 118°11'0 0.0
2019-Jul-14 13:00N 33°45' W 118°11'0 0.0
2019-Jul-14 12:30N 33°45' W 118°11'0 0.0
2019-Jul-14 12:00N 33°45' W 118°11'0 0.6
2019-Jul-14 11:30N 33°45' W 118°11'4 8.5
2019-Jul-14 11:01N 33°41' W 118°11'611.4
2019-Jul-14 10:30N 33°35' W 118°09'714.0
2019-Jul-14 10:01N 33°28' W 118°06'612.9
2019-Jul-14 09:30N 33°22' W 118°04'816.1
2019-Jul-14 09:00N 33°15' W 118°00'815.9
2019-Jul-14 08:30N 33°07' W 117°57'815.9
2019-Jul-14 08:00N 32°60' W 117°54'815.7
2019-Jul-14 07:30N 32°53' W 117°51'816.0
2019-Jul-14 07:00N 32°45' W 117°48'816.3
2019-Jul-14 06:31N 32°37' W 117°46'816.1
2019-Jul-14 06:00N 32°29' W 117°42'141.6
2019-Jul-14 06:00N 32°30' W 117°42'816.8 220 / 21014.010.8 18.014.819.0
2019-Jul-14 05:30N 32°23' W 117°38'815.9
2019-Jul-14 05:00N 32°17' W 117°32'1115.5
2019-Jul-14 04:17N 32°09' W 117°22'415.2
2019-Jul-14 04:00N 32°06' W 117°18'715.0
2019-Jul-14 03:30N 32°02' W 117°11'915.4
2019-Jul-14 02:57N 31°58' W 117°02'815.6
2019-Jul-14 02:27N 31°55' W 116°53'7 0.5
2019-Jul-13 13:04N 31°52' W 116°46'1 6.4
2019-Jul-13 12:59N 31°52' W 116°47'3 6.5
2019-Jul-13 12:30N 31°54' W 116°50'3 6.7
2019-Jul-13 12:00N 31°55' W 116°54'3 6.7
2019-Jul-13 11:30N 31°56' W 116°57'3 6.7
2019-Jul-13 11:00N 31°57' W 117°01'3 6.7
2019-Jul-13 10:30N 31°57' W 117°05'4 7.0
2019-Jul-13 10:00N 31°58' W 117°09'3 7.0
2019-Jul-13 09:30N 31°60' W 117°13'3 5.8
2019-Jul-13 09:00N 31°58' W 117°15'3 6.6
2019-Jul-13 08:31N 31°55' W 117°15'3 6.6
2019-Jul-13 08:00N 31°51' W 117°15'4293.0
2019-Jul-13 08:00N 31°48' W 117°12'2 3.6 320 / 121015.010.8 17.013.718.0
2019-Jul-13 07:31N 31°48' W 117°14'3 6.9
2019-Jul-13 07:00N 31°45' W 117°13'3 6.9
2019-Jul-13 06:30N 31°41' W 117°13'3 6.8
2019-Jul-13 06:00N 31°39' W 117°17'4 6.9
2019-Jul-13 05:30N 31°38' W 117°20'3 6.9
2019-Jul-13 05:00N 31°36' W 117°24'6459.2
2019-Jul-13 05:00N 31°30' W 117°24'612.1 250 / 71015.0 5.4 16.012.719.0
2019-Jul-13 04:30N 31°35' W 117°28'4 7.1
2019-Jul-13 04:00N 31°33' W 117°32'4 7.3
2019-Jul-13 03:30N 31°32' W 117°35'4 7.1
2019-Jul-13 03:00N 31°30' W 117°39'5 7.1
2019-Jul-13 02:20N 31°28' W 117°44'2 7.0
2019-Jul-13 02:00N 31°27' W 117°47'4 7.1
2019-Jul-13 01:30N 31°26' W 117°51'3 7.0
2019-Jul-13 01:01N 31°24' W 117°54'4 7.1
2019-Jul-13 00:30N 31°23' W 117°58'4 7.1
2019-Jul-13 00:01N 31°21' W 118°02'4 7.1
2019-Jul-12 23:30N 31°20' W 118°06'3 6.9
2019-Jul-12 23:00N 31°23' W 118°08'4 7.3
2019-Jul-12 22:30N 31°26' W 118°09'4 7.7
2019-Jul-12 22:00N 31°30' W 118°10'7505.8
2019-Jul-12 22:00N 31°24' W 118°06'1122.2 310 / 81015.010.8 17.013.718.0
2019-Jul-12 21:30N 31°34' W 118°11'4 7.4
2019-Jul-12 21:00N 31°37' W 118°12'4 7.2
2019-Jul-12 20:30N 31°41' W 118°13'4 7.2
2019-Jul-12 20:00N 31°44' W 118°14'3 6.1
2019-Jul-12 19:30N 31°47' W 118°12'4 7.1
2019-Jul-12 19:00N 31°45' W 118°08'3 6.9
2019-Jul-12 18:30N 31°43' W 118°05'4 7.1
2019-Jul-12 18:00N 31°41' W 118°01'4 7.2
2019-Jul-12 17:30N 31°39' W 117°57'3 6.9
2019-Jul-12 17:00N 31°39' W 117°53'4 7.8
2019-Jul-12 16:30N 31°43' W 117°52'4 8.5
2019-Jul-12 16:00N 31°47' W 117°51'5327.4
2019-Jul-12 16:00N 31°42' W 117°48'918.3 010 / 81015.010.8 15.013.318.0
2019-Jul-12 15:30N 31°51' W 117°50'4 8.4
2019-Jul-12 15:00N 31°55' W 117°49'6348.8
2019-Jul-12 15:00N 31°54' W 117°42'714.0 010 / 81011.010.8 16.014.419.0
2019-Jul-12 14:31N 31°59' W 117°47'4 8.4
2019-Jul-12 14:01N 32°03' W 117°46'5283.8
2019-Jul-12 14:00N 32°00' W 117°42'816.1 360 / 81011.010.8 16.014.419.0
2019-Jul-12 13:30N 32°07' W 117°46'4 8.5
2019-Jul-12 13:00N 32°11' W 117°46'4 8.3
2019-Jul-12 12:30N 32°15' W 117°47'4 8.3
2019-Jul-12 12:00N 32°20' W 117°47'4 8.3
2019-Jul-12 11:30N 32°24' W 117°47'4 8.5
2019-Jul-12 11:01N 32°28' W 117°48'4 8.5
2019-Jul-12 10:30N 32°32' W 117°48'4 8.5
2019-Jul-12 10:01N 32°36' W 117°48'028.0
2019-Jul-12 10:00N 32°36' W 117°48'4 9.2 340 / 81015.010.8 18.014.819.0
2019-Jul-12 09:31N 32°40' W 117°50'4 8.2
2019-Jul-12 09:00N 32°44' W 117°51'4 8.2
2019-Jul-12 08:30N 32°48' W 117°53'4 8.2
2019-Jul-12 08:00N 32°52' W 117°55'4 8.1
2019-Jul-12 07:30N 32°56' W 117°56'4 8.2
2019-Jul-12 07:00N 32°59' W 117°58'4 8.0
2019-Jul-12 06:30N 33°03' W 117°59'4 7.9
2019-Jul-12 06:00N 33°07' W 118°01'178.9
2019-Jul-12 06:00N 33°06' W 118°00'611.5 160 / 91012.010.8 19.015.919.6
2019-Jul-12 05:30N 33°11' W 118°03'5 9.0
2019-Jul-12 05:00N 33°15' W 118°04'5311.1
2019-Jul-12 05:00N 33°12' W 118°00'918.9 340 / 91012.010.8 17.013.718.0
2019-Jul-12 04:30N 33°19' W 118°06'4 8.7
2019-Jul-12 04:00N 33°24' W 118°08'6356.4
2019-Jul-12 04:00N 33°18' W 118°06'1021.6 330 / 91012.010.8 17.013.718.0
2019-Jul-12 03:30N 33°28' W 118°10'5 9.2
2019-Jul-12 03:00N 33°32' W 118°12'5 9.3
2019-Jul-12 02:30N 33°37' W 118°13'8 8.4
2019-Jul-12 01:30N 33°45' W 118°11'0 0.0
2019-Jul-12 00:58N 33°45' W 118°11'0 0.0
2019-Jul-12 00:28N 33°45' W 118°11'0 0.0
2019-Jul-11 23:58N 33°45' W 118°11'0 0.0
2019-Jul-11 23:30N 33°45' W 118°11'0 0.0
2019-Jul-11 23:00N 33°45' W 118°11'0 0.0
2019-Jul-11 22:30N 33°45' W 118°11'0 0.0
2019-Jul-11 22:00N 33°45' W 118°11'0 0.0
2019-Jul-11 21:30N 33°45' W 118°11'0 0.0
2019-Jul-11 21:00N 33°45' W 118°11'0 0.0
2019-Jul-11 20:29N 33°45' W 118°11'0 0.0
2019-Jul-11 19:59N 33°45' W 118°11'0 0.0
2019-Jul-11 19:30N 33°45' W 118°11'0 0.0
2019-Jul-11 19:01N 33°45' W 118°11'0 0.0
2019-Jul-11 18:30N 33°45' W 118°11'0 0.0
2019-Jul-11 18:01N 33°45' W 118°11'0 0.0
2019-Jul-11 17:30N 33°45' W 118°11'0 0.0
2019-Jul-11 17:01N 33°45' W 118°11'0 0.0
2019-Jul-11 16:30N 33°45' W 118°11'0 0.0
2019-Jul-11 16:00N 33°45' W 118°11'0 0.0
2019-Jul-11 15:31N 33°45' W 118°11'0 0.0
2019-Jul-11 15:00N 33°45' W 118°11'0 0.0
2019-Jul-11 14:30N 33°45' W 118°11'0 0.0
2019-Jul-11 14:00N 33°45' W 118°11'0 0.0
2019-Jul-11 13:30N 33°45' W 118°11'0 0.0
2019-Jul-11 13:00N 33°45' W 118°11'0 0.4
2019-Jul-11 12:30N 33°45' W 118°11'3 5.6
2019-Jul-11 12:00N 33°42' W 118°11'4 8.6
2019-Jul-11 11:30N 33°38' W 118°10'4 7.6
2019-Jul-11 11:00N 33°34' W 118°09'3 6.7
2019-Jul-11 10:31N 33°31' W 118°08'3 6.3
2019-Jul-11 10:01N 33°28' W 118°06'3 6.8
2019-Jul-11 09:30N 33°25' W 118°05'4 7.1
2019-Jul-11 09:01N 33°21' W 118°03'4 7.3
2019-Jul-11 08:30N 33°18' W 118°02'4 7.2
2019-Jul-11 08:00N 33°15' W 118°00'4 7.3
2019-Jul-11 07:31N 33°11' W 117°58'4 7.3
2019-Jul-11 07:00N 33°08' W 117°57'4 7.1
2019-Jul-11 06:31N 33°05' W 117°55'4 7.2
2019-Jul-11 06:01N 33°01' W 117°53'5277.9
2019-Jul-11 06:00N 33°00' W 117°48'4 7.6 260 / 71016.010.8 17.013.719.9
2019-Jul-11 05:30N 32°58' W 117°52'4 7.2
2019-Jul-11 05:01N 32°55' W 117°50'2127.6
2019-Jul-11 05:00N 32°54' W 117°48'3 6.6 280 / 71016.010.8 17.013.718.0
2019-Jul-11 04:30N 32°51' W 117°50'3 6.9
2019-Jul-11 04:00N 32°48' W 117°49'169.8
2019-Jul-11 04:00N 32°48' W 117°48'4 8.2 270 / 41016.010.8 17.013.718.0
2019-Jul-11 03:30N 32°44' W 117°49'4 7.3
2019-Jul-11 03:00N 32°40' W 117°48'3 6.9
2019-Jul-11 02:31N 32°37' W 117°48'4 7.2
2019-Jul-11 02:00N 32°34' W 117°46'4 7.7
2019-Jul-11 01:30N 32°31' W 117°43'5 9.1
2019-Jul-11 01:00N 32°27' W 117°40'5 9.8
2019-Jul-11 00:30N 32°23' W 117°37'4 7.8
2019-Jul-11 00:00N 32°19' W 117°35'4 7.7
2019-Jul-10 23:30N 32°16' W 117°33'4 7.6
2019-Jul-10 23:01N 32°13' W 117°30'4 7.5
2019-Jul-10 22:31N 32°10' W 117°28'4 7.2
2019-Jul-10 22:00N 32°06' W 117°26'4 7.2
2019-Jul-10 21:30N 32°03' W 117°24'4 7.3
2019-Jul-10 21:00N 32°00' W 117°21'4 7.3
2019-Jul-10 20:30N 31°56' W 117°21'4 7.8
2019-Jul-10 20:00N 31°53' W 117°22'4261.0
2019-Jul-10 20:00N 31°54' W 117°18'714.7 290 / 151015.010.8 18.014.819.0
2019-Jul-10 19:31N 31°50' W 117°25'4 8.0
2019-Jul-10 19:00N 31°49' W 117°29'4 7.9
2019-Jul-10 18:31N 31°47' W 117°34'4 7.8
2019-Jul-10 18:00N 31°46' W 117°38'5279.8
2019-Jul-10 18:00N 31°42' W 117°36'612.7 300 / 91018.010.8 17.013.718.0
2019-Jul-10 17:30N 31°45' W 117°42'4 7.9
2019-Jul-10 17:00N 31°43' W 117°47'4267.0
2019-Jul-10 17:00N 31°42' W 117°42'815.8 250 / 81018.010.8 15.013.318.0
2019-Jul-10 16:31N 31°42' W 117°51'4 7.4
2019-Jul-10 16:01N 31°41' W 117°55'5286.0
2019-Jul-10 16:00N 31°36' W 117°54'611.7 300 / 91018.010.8 15.013.318.0
2019-Jul-10 15:30N 31°40' W 117°59'4 7.2
2019-Jul-10 15:00N 31°38' W 118°03'4 7.1
2019-Jul-10 14:30N 31°35' W 118°05'4 7.2
2019-Jul-10 14:00N 31°32' W 118°06'3 5.8
2019-Jul-10 13:30N 31°29' W 118°05'4 7.0
2019-Jul-10 13:00N 31°27' W 118°01'4 6.9
2019-Jul-10 12:29N 31°26' W 117°57'3 7.2
2019-Jul-10 12:01N 31°24' W 117°54'4 7.1
2019-Jul-10 11:30N 31°23' W 117°50'4 7.1
2019-Jul-10 11:01N 31°26' W 117°48'4 7.7
2019-Jul-10 10:31N 31°30' W 117°48'4 7.7
2019-Jul-10 10:00N 31°34' W 117°49'4 7.5
2019-Jul-10 09:30N 31°37' W 117°49'3 6.1
2019-Jul-10 09:00N 31°40' W 117°47'6347.0
2019-Jul-10 09:00N 31°36' W 117°42'510.3 320 / 111015.010.8 17.013.719.0
2019-Jul-10 08:30N 31°41' W 117°43'4 7.5
2019-Jul-10 08:00N 31°42' W 117°38'2124.6
2019-Jul-10 08:00N 31°42' W 117°36'2 4.3 340 / 81016.010.8 17.013.719.0
2019-Jul-10 07:25N 31°43' W 117°33'3 7.8
2019-Jul-10 07:00N 31°44' W 117°30'4 8.3
2019-Jul-10 06:31N 31°45' W 117°25'4 8.1
2019-Jul-10 06:01N 31°46' W 117°20'5299.0
2019-Jul-10 06:00N 31°42' W 117°24'917.6 350 / 171016.010.8 17.013.718.0
2019-Jul-10 05:31N 31°47' W 117°16'4 8.4
2019-Jul-10 05:00N 31°48' W 117°11'41543.6
2019-Jul-10 05:00N 31°48' W 117°06'1 2.9 340 / 161016.010.8 17.013.718.0
2019-Jul-10 04:31N 31°49' W 117°06'4 8.8
2019-Jul-10 04:00N 31°50' W 117°01'3193.6
2019-Jul-10 04:00N 31°48' W 117°00'10 0.6 350 / 191016.010.8 17.013.719.0
2019-Jul-09 12:46N 31°54' W 116°51'3 9.5
2019-Jul-09 12:27N 31°55' W 116°54'6 9.4
2019-Jul-09 11:47N 31°57' W 117°01'3 9.6
2019-Jul-09 11:29N 31°57' W 117°04'5 9.7
2019-Jul-09 10:59N 31°59' W 117°10'5 9.6
2019-Jul-09 10:27N 32°01' W 117°16'6 9.6
2019-Jul-09 09:48N 32°05' W 117°21'3 9.5
2019-Jul-09 09:30N 32°07' W 117°24'5 9.5
2019-Jul-09 09:01N 32°09' W 117°28'5290.2
2019-Jul-09 09:00N 32°06' W 117°24'919.6 310 / 91015.010.8 18.013.119.0
2019-Jul-09 08:31N 32°12' W 117°32'5 9.3
2019-Jul-09 08:01N 32°16' W 117°36'6370.5
2019-Jul-09 08:00N 32°12' W 117°30'1122.6 310 / 91015.010.8 18.013.119.0
2019-Jul-09 07:31N 32°19' W 117°40'5 9.3
2019-Jul-09 07:00N 32°23' W 117°42'5 9.6
2019-Jul-09 06:31N 32°28' W 117°45'611.0
2019-Jul-09 06:01N 32°33' W 117°47'5303.6
2019-Jul-09 06:00N 32°30' W 117°42'1021.4 040 / 51015.010.8 18.013.120.0
2019-Jul-09 05:30N 32°38' W 117°49'5 9.3
2019-Jul-09 05:00N 32°43' W 117°49'2108.5
2019-Jul-09 05:00N 32°42' W 117°48'612.2 020 / 51015.010.8 18.013.120.0
2019-Jul-09 04:31N 32°48' W 117°49'5 9.6
2019-Jul-09 04:01N 32°53' W 117°50'11639.3
2019-Jul-09 04:00N 32°42' W 117°48'1531.0 340 / 21015.010.8 18.013.120.0
2019-Jul-09 03:30N 32°57' W 117°53'5 9.5
2019-Jul-09 03:00N 33°00' W 117°56'5 9.1
2019-Jul-09 02:30N 33°04' W 117°60'5 9.1
2019-Jul-09 02:01N 33°07' W 118°03'5 9.4
2019-Jul-09 01:30N 33°11' W 118°07'5 9.7
2019-Jul-09 01:00N 33°14' W 118°11'5 9.5
2019-Jul-09 00:30N 33°18' W 118°14'4 8.8
2019-Jul-09 00:00N 33°21' W 118°18'1 1.0
2019-Jul-08 23:29N 33°21' W 118°19'0 0.0
2019-Jul-08 22:50N 33°21' W 118°19'0 0.0
2019-Jul-08 22:30N 33°21' W 118°19'0 0.0
2019-Jul-08 21:59N 33°21' W 118°19'0 0.0
2019-Jul-08 21:28N 33°21' W 118°19'0 0.0
2019-Jul-08 20:58N 33°21' W 118°19'0 0.0
2019-Jul-08 20:28N 33°21' W 118°19'0 0.0
2019-Jul-08 19:58N 33°21' W 118°19'0 0.0
2019-Jul-08 19:31N 33°21' W 118°19'0 0.0
2019-Jul-08 19:00N 33°21' W 118°19'0 0.0
2019-Jul-08 18:30N 33°21' W 118°19'0 0.0
2019-Jul-08 18:00N 33°21' W 118°19'0 0.0
2019-Jul-08 17:30N 33°21' W 118°19'0 0.0
2019-Jul-08 17:01N 33°21' W 118°19'0 0.1
2019-Jul-08 16:30N 33°21' W 118°19'0 0.1
2019-Jul-08 16:00N 33°21' W 118°19'0 0.0
2019-Jul-08 15:30N 33°21' W 118°19'0 0.0
2019-Jul-08 15:00N 33°21' W 118°19'0 0.0
2019-Jul-08 14:30N 33°21' W 118°19'0 0.1
2019-Jul-08 14:00N 33°21' W 118°19'3 6.1
2019-Jul-08 13:30N 33°18' W 118°17'4 7.1
2019-Jul-08 13:00N 33°15' W 118°16'3 6.8
2019-Jul-08 12:30N 33°11' W 118°16'4 7.4
2019-Jul-08 12:00N 33°08' W 118°15'4 7.0
2019-Jul-08 11:30N 33°04' W 118°14'4 7.0
2019-Jul-08 11:00N 33°02' W 118°11'9581.2
2019-Jul-08 11:00N 32°54' W 118°06'612.2 130 / 71015.010.8 18.013.120.0
2019-Jul-08 10:30N 32°60' W 118°08'4 7.2
2019-Jul-08 10:00N 32°57' W 118°04'4 7.2
2019-Jul-08 09:30N 32°55' W 118°01'3 6.9
2019-Jul-08 09:00N 32°53' W 117°57'4 7.0
2019-Jul-08 08:30N 32°55' W 117°54'4 7.1
2019-Jul-08 08:00N 32°58' W 117°55'4333.2
2019-Jul-08 08:00N 32°54' W 117°54'815.8 340 / 21014.010.8 18.013.120.0
2019-Jul-08 07:30N 33°01' W 117°57'4 7.1
2019-Jul-08 07:00N 33°04' W 117°59'4 7.3
2019-Jul-08 06:30N 33°08' W 118°00'4 7.2
2019-Jul-08 06:00N 33°11' W 118°02'5350.5
2019-Jul-08 06:00N 33°06' W 118°00'919.0 120 / 81014.010.8 18.013.118.0
2019-Jul-08 05:30N 33°15' W 118°04'4 7.5
2019-Jul-08 05:00N 33°18' W 118°06'8466.5
2019-Jul-08 05:00N 33°12' W 118°00'1123.7 120 / 31014.010.8 18.013.118.0
2019-Jul-08 04:30N 33°21' W 118°08'4 7.8
2019-Jul-08 04:00N 33°25' W 118°09'3196.5
2019-Jul-08 04:00N 33°24' W 118°06'613.3 140 / 101014.010.8 18.013.118.0
2019-Jul-08 03:30N 33°29' W 118°11'5 9.0
2019-Jul-08 03:00N 33°33' W 118°13'5 9.5
2019-Jul-08 02:30N 33°38' W 118°13'4 8.7
2019-Jul-08 02:00N 33°42' W 118°11'3 5.5
2019-Jul-08 01:29N 33°45' W 118°11'0 0.0
2019-Jul-08 00:59N 33°45' W 118°11'0 0.0
2019-Jul-08 00:28N 33°45' W 118°11'0 0.0
2019-Jul-07 23:58N 33°45' W 118°11'0 0.0
2019-Jul-07 23:28N 33°45' W 118°11'0 0.0
2019-Jul-07 22:58N 33°45' W 118°11'0 0.0
2019-Jul-07 22:28N 33°45' W 118°11'0 0.0
2019-Jul-07 22:00N 33°45' W 118°11'0 0.0
2019-Jul-07 21:30N 33°45' W 118°11'0 0.0
2019-Jul-07 21:00N 33°45' W 118°11'0 0.0
2019-Jul-07 20:30N 33°45' W 118°11'0 0.0
2019-Jul-07 19:59N 33°45' W 118°11'0 0.0
2019-Jul-07 19:29N 33°45' W 118°11'0 0.0
2019-Jul-07 18:59N 33°45' W 118°11'0 0.0
2019-Jul-07 18:26N 33°45' W 118°11'0 0.0
2019-Jul-07 17:59N 33°45' W 118°11'0 0.0
2019-Jul-07 17:28N 33°45' W 118°11'0 0.0
2019-Jul-07 16:58N 33°45' W 118°11'0 0.0
2019-Jul-07 16:28N 33°45' W 118°11'0 0.0
2019-Jul-07 15:58N 33°45' W 118°11'0 0.0
2019-Jul-07 15:31N 33°45' W 118°11'0 0.0
2019-Jul-07 15:00N 33°45' W 118°11'0 0.0
2019-Jul-07 14:30N 33°45' W 118°11'0 0.0
2019-Jul-07 14:00N 33°45' W 118°11'0 0.0
2019-Jul-07 13:30N 33°45' W 118°11'0 0.0
2019-Jul-07 12:59N 33°45' W 118°11'0 0.3
2019-Jul-07 12:30N 33°45' W 118°11'3 5.6
2019-Jul-07 12:00N 33°42' W 118°11'510.6
2019-Jul-07 11:30N 33°37' W 118°10'510.6
2019-Jul-07 11:00N 33°32' W 118°08'4 8.1
2019-Jul-07 10:30N 33°28' W 118°06'510.5
2019-Jul-07 10:00N 33°23' W 118°04'510.9
2019-Jul-07 09:31N 33°18' W 118°02'611.2
2019-Jul-07 09:00N 33°13' W 117°59'611.8
2019-Jul-07 08:30N 33°07' W 117°57'611.8
2019-Jul-07 08:00N 33°02' W 117°54'4249.9
2019-Jul-07 08:00N 33°06' W 117°54'1122.1 160 / 121015.010.8 18.014.819.0
2019-Jul-07 07:30N 32°56' W 117°51'816.5
2019-Jul-07 07:00N 32°48' W 117°49'816.8
2019-Jul-07 06:30N 32°39' W 117°47'816.3
2019-Jul-07 06:00N 32°31' W 117°45'3156.8
2019-Jul-07 06:00N 32°30' W 117°42'611.8 290 / 11016.010.8 17.011.918.0
2019-Jul-07 05:30N 32°25' W 117°39'816.4
2019-Jul-07 05:00N 32°18' W 117°33'3205.6
2019-Jul-07 05:00N 32°18' W 117°30'612.9 270 / 71016.010.8 17.011.918.0
2019-Jul-07 04:30N 32°12' W 117°27'1018.9
2019-Jul-07 04:00N 32°06' W 117°18'30 2.0 300 / 41016.010.8 17.011.918.0
2019-Jul-06 13:04N 31°52' W 116°47'1 7.1
2019-Jul-06 13:00N 31°52' W 116°47'5 7.1
2019-Jul-06 12:14N 31°55' W 116°53'2 7.1
2019-Jul-06 12:00N 31°55' W 116°55'4 7.1
2019-Jul-06 11:28N 31°55' W 116°59'2 3.4
2019-Jul-06 11:00N 31°54' W 117°00'4114.2 250 / 31015.010.8 17.013.719.0
2019-Jul-06 10:58N 31°56' W 117°03'  

Dump ship's entire track history